createdAt,value
2018-06-16T00:00:31.634Z,20.80
2018-06-16T00:01:30.460Z,20.30
2018-06-16T00:02:31.291Z,20.30
2018-06-16T00:03:31.104Z,20.40
2018-06-16T00:04:31.173Z,19.20
2018-06-16T00:05:31.385Z,19.00
2018-06-16T00:06:31.639Z,18.80
2018-06-16T00:07:30.566Z,20.30
2018-06-16T00:08:32.266Z,19.60
2018-06-16T00:09:31.106Z,20.40
2018-06-16T00:10:30.886Z,19.50
2018-06-16T00:11:30.724Z,19.80
2018-06-16T00:12:30.903Z,20.50
2018-06-16T00:13:30.658Z,19.30
2018-06-16T00:14:30.388Z,20.20
2018-06-16T00:15:31.146Z,19.10
2018-06-16T00:16:31.408Z,20.50
2018-06-16T00:17:31.534Z,20.60
2018-06-16T00:18:30.827Z,20.50
2018-06-16T00:19:30.976Z,20.70
2018-06-16T00:20:51.976Z,20.90
2018-06-16T00:21:52.274Z,19.10
2018-06-16T00:22:52.097Z,20.20
2018-06-16T00:23:51.821Z,20.00
2018-06-16T00:24:52.944Z,20.40
2018-06-16T00:25:52.621Z,20.70
2018-06-16T00:26:52.812Z,19.80
2018-06-16T00:27:51.583Z,19.90
2018-06-16T00:28:52.909Z,20.30
2018-06-16T00:29:51.802Z,20.00
2018-06-16T00:30:52.025Z,20.30
2018-06-16T00:31:52.210Z,20.00
2018-06-16T00:32:52.472Z,19.50
2018-06-16T00:33:52.745Z,19.80
2018-06-16T00:34:52.944Z,20.10
2018-06-16T00:35:51.781Z,20.40
2018-06-16T00:36:52.478Z,20.20
2018-06-16T00:37:52.356Z,20.40
2018-06-16T00:39:33.821Z,20.40
2018-06-16T00:40:34.847Z,20.00
2018-06-16T00:41:34.659Z,20.90
2018-06-16T00:42:34.328Z,21.30
2018-06-16T00:43:34.686Z,19.90
2018-06-16T00:44:34.437Z,20.70
2018-06-16T00:45:34.469Z,19.70
2018-06-16T00:46:34.679Z,19.70
2018-06-16T00:47:35.307Z,19.70
2018-06-16T00:48:34.668Z,19.50
2018-06-16T00:49:34.445Z,19.50
2018-06-16T00:50:34.619Z,19.50
2018-06-16T00:51:34.333Z,20.30
2018-06-16T00:52:34.067Z,18.90
2018-06-16T00:53:35.160Z,19.40
2018-06-16T00:54:34.443Z,19.20
2018-06-16T00:55:34.279Z,20.10
2018-06-16T00:56:34.131Z,19.00
2018-06-16T00:57:34.443Z,20.00
2018-06-16T00:58:34.252Z,18.60
2018-06-16T00:59:34.116Z,19.10
2018-06-16T01:00:34.034Z,19.00
2018-06-16T01:01:54.736Z,19.10
2018-06-16T01:02:54.560Z,18.70
2018-06-16T01:04:16.175Z,18.70
2018-06-16T01:05:15.941Z,17.90
2018-06-16T01:06:15.894Z,19.10
2018-06-16T01:07:16.693Z,17.90
2018-06-16T01:08:16.965Z,18.60
2018-06-16T01:09:16.206Z,18.50
2018-06-16T01:10:16.365Z,17.20
2018-06-16T01:11:16.431Z,18.50
2018-06-16T01:12:16.658Z,17.30
2018-06-16T01:13:16.748Z,17.30
2018-06-16T01:14:37.822Z,18.20
2018-06-16T01:15:38.864Z,18.40
2018-06-16T01:16:38.824Z,17.90
2018-06-16T01:17:37.594Z,17.10
2018-06-16T01:18:59.099Z,17.80
2018-06-16T01:20:41.072Z,17.00
2018-06-16T01:21:42.052Z,18.40
2018-06-16T01:22:42.106Z,17.70
2018-06-16T01:23:41.935Z,16.70
2018-06-16T01:24:42.023Z,16.90
2018-06-16T01:25:41.772Z,17.30
2018-06-16T01:27:02.815Z,17.10
2018-06-16T01:28:02.814Z,16.70
2018-06-16T01:29:02.746Z,17.30
2018-06-16T01:30:02.285Z,17.10
2018-06-16T01:31:01.979Z,16.40
2018-06-16T01:32:03.100Z,16.80
2018-06-16T01:33:22.553Z,16.30
2018-06-16T01:34:23.515Z,17.30
2018-06-16T01:35:23.456Z,16.40
2018-06-16T01:36:23.521Z,17.20
2018-06-16T01:37:23.148Z,16.60
2018-06-16T01:38:23.382Z,16.30
2018-06-16T01:39:43.083Z,17.30
2018-06-16T01:40:44.030Z,16.70
2018-06-16T01:41:42.830Z,16.10
2018-06-16T01:42:43.976Z,15.90
2018-06-16T01:43:42.776Z,16.30
2018-06-16T01:44:43.436Z,17.10
2018-06-16T01:45:43.516Z,17.40
2018-06-16T01:46:43.243Z,16.90
2018-06-16T01:47:43.547Z,15.90
2018-06-16T01:48:43.503Z,16.50
2018-06-16T01:49:43.289Z,16.70
2018-06-16T01:50:43.401Z,16.20
2018-06-16T01:51:43.164Z,17.10
2018-06-16T01:52:43.211Z,16.80
2018-06-16T01:53:42.814Z,16.60
2018-06-16T01:55:04.597Z,16.20
2018-06-16T01:56:26.293Z,16.70
2018-06-16T01:57:25.934Z,16.80
2018-06-16T01:58:26.957Z,15.80
2018-06-16T01:59:26.691Z,16.40
2018-06-16T02:00:26.330Z,16.90
2018-06-16T02:01:26.599Z,16.90
2018-06-16T02:02:26.670Z,16.20
2018-06-16T02:03:26.733Z,16.30
2018-06-16T02:04:47.349Z,15.30
2018-06-16T02:05:47.064Z,15.90
2018-06-16T02:06:48.138Z,16.00
2018-06-16T02:07:48.160Z,15.70
2018-06-16T02:08:47.636Z,17.60
2018-06-16T02:09:47.882Z,16.70
2018-06-16T02:10:47.896Z,16.10
2018-06-16T02:11:47.968Z,16.00
2018-06-16T02:12:47.710Z,16.80
2018-06-16T02:13:47.334Z,15.80
2018-06-16T02:15:08.780Z,16.50
2018-06-16T02:16:08.589Z,15.80
2018-06-16T02:17:30.054Z,16.30
2018-06-16T02:18:30.800Z,16.20
2018-06-16T02:19:30.418Z,16.00
2018-06-16T02:20:51.247Z,16.40
2018-06-16T02:21:52.250Z,15.30
2018-06-16T02:23:23.971Z,16.60
2018-06-16T02:24:11.720Z,15.90
2018-06-16T02:25:11.993Z,16.60
2018-06-16T02:26:53.116Z,16.60
2018-06-16T02:27:52.779Z,16.50
2018-06-16T02:28:53.756Z,16.50
2018-06-16T02:29:53.779Z,16.50
2018-06-16T02:30:53.535Z,16.60
2018-06-16T02:31:53.333Z,17.50
2018-06-16T02:32:53.443Z,17.00
2018-06-16T02:33:53.183Z,17.90
2018-06-16T02:35:13.800Z,17.40
2018-06-16T02:36:14.187Z,16.40
2018-06-16T02:37:35.293Z,17.20
2018-06-16T02:38:35.134Z,16.60
2018-06-16T02:39:34.975Z,16.70
2018-06-16T02:40:35.753Z,16.70
2018-06-16T02:41:35.828Z,16.40
2018-06-16T02:42:36.003Z,17.70
2018-06-16T02:43:56.200Z,16.90
2018-06-16T02:44:57.175Z,17.00
2018-06-16T02:45:57.399Z,18.20
2018-06-16T02:46:57.187Z,17.10
2018-06-16T02:48:38.089Z,17.10
2018-06-16T02:49:38.287Z,17.60
2018-06-16T02:50:38.209Z,17.30
2018-06-16T02:51:58.462Z,16.70
2018-06-16T02:52:59.413Z,17.80
2018-06-16T02:53:59.669Z,18.00
2018-06-16T02:55:19.826Z,17.90
2018-06-16T02:56:20.904Z,18.30
2018-06-16T02:57:20.735Z,17.00
2018-06-16T02:58:20.533Z,18.00
2018-06-16T02:59:21.057Z,17.10
2018-06-16T03:00:21.201Z,17.60
2018-06-16T03:01:20.131Z,18.30
2018-06-16T03:02:20.086Z,18.20
2018-06-16T03:03:20.114Z,18.30
2018-06-16T03:04:42.160Z,17.80
2018-06-16T03:05:42.308Z,18.30
2018-06-16T03:06:44.768Z,18.00
2018-06-16T03:07:44.877Z,18.70
2018-06-16T03:08:42.063Z,18.30
2018-06-16T03:09:42.349Z,18.10
2018-06-16T03:10:42.514Z,17.40
2018-06-16T03:12:02.794Z,18.30
2018-06-16T03:13:24.414Z,18.60
2018-06-16T03:14:45.922Z,18.70
2018-06-16T03:16:08.025Z,17.50
2018-06-16T03:17:08.258Z,17.80
2018-06-16T03:18:08.465Z,17.50
2018-06-16T03:19:08.410Z,18.60
2018-06-16T03:21:51.589Z,19.10
2018-06-16T03:22:51.425Z,18.70
2018-06-16T03:23:52.581Z,17.80
2018-06-16T03:25:32.592Z,17.80
2018-06-16T03:26:54.064Z,18.50
2018-06-16T03:27:55.035Z,18.40
2018-06-16T03:28:54.919Z,18.60
2018-06-16T03:29:54.522Z,18.40
2018-06-16T03:30:54.566Z,19.50
2018-06-16T03:31:54.403Z,18.20
2018-06-16T03:32:54.205Z,18.70
2018-06-16T03:33:54.968Z,18.10
2018-06-16T03:34:55.111Z,18.40
2018-06-16T03:35:54.870Z,19.10
2018-06-16T03:36:54.954Z,18.20
2018-06-16T03:38:36.356Z,18.30
2018-06-16T03:39:37.624Z,18.40
2018-06-16T03:40:36.419Z,18.20
2018-06-16T03:41:37.243Z,16.80
2018-06-16T03:42:37.029Z,18.50
2018-06-16T03:43:36.949Z,17.80
2018-06-16T03:44:36.902Z,17.40
2018-06-16T03:45:36.742Z,18.10
2018-06-16T03:46:36.473Z,17.60
2018-06-16T03:47:37.569Z,18.00
2018-06-16T03:48:37.186Z,17.80
2018-06-16T03:49:37.007Z,17.90
2018-06-16T03:50:37.261Z,18.20
2018-06-16T03:51:36.957Z,18.50
2018-06-16T03:52:36.806Z,17.10
2018-06-16T03:53:36.569Z,17.40
2018-06-16T03:54:36.291Z,17.70
2018-06-16T03:55:37.195Z,17.60
2018-06-16T03:56:37.303Z,18.30
2018-06-16T03:57:36.969Z,18.00
2018-06-16T03:58:36.579Z,18.40
2018-06-16T03:59:36.314Z,18.20
2018-06-16T04:00:37.412Z,18.40
2018-06-16T04:01:37.545Z,17.90
2018-06-16T04:02:36.489Z,18.60
2018-06-16T04:03:36.313Z,18.00
2018-06-16T04:04:37.496Z,18.50
2018-06-16T04:05:36.379Z,18.50
2018-06-16T04:06:58.124Z,18.20
2018-06-16T04:07:58.957Z,17.40
2018-06-16T04:08:58.721Z,17.60
2018-06-16T04:09:58.796Z,17.70
2018-06-16T04:10:58.500Z,17.60
2018-06-16T04:12:39.611Z,16.90
2018-06-16T04:13:40.645Z,17.60
2018-06-16T04:14:40.727Z,17.20
2018-06-16T04:15:40.871Z,17.20
2018-06-16T04:17:00.088Z,17.60
2018-06-16T04:18:00.862Z,17.10
2018-06-16T04:19:01.112Z,17.40
2018-06-16T04:20:00.825Z,17.40
2018-06-16T04:21:00.742Z,17.00
2018-06-16T04:22:22.165Z,16.90
2018-06-16T04:23:22.923Z,17.60
2018-06-16T04:24:43.911Z,17.30
2018-06-16T04:25:43.923Z,17.90
2018-06-16T04:26:44.093Z,16.90
2018-06-16T04:27:43.835Z,16.70
2018-06-16T04:28:43.603Z,17.80
2018-06-16T04:29:44.501Z,17.90
2018-06-16T04:30:44.705Z,17.60
2018-06-16T04:31:44.453Z,15.80
2018-06-16T04:32:44.189Z,15.90
2018-06-16T04:33:43.950Z,17.00
2018-06-16T04:34:44.084Z,16.30
2018-06-16T04:35:44.139Z,16.40
2018-06-16T04:36:48.583Z,17.20
2018-06-16T04:37:51.491Z,16.60
2018-06-16T04:39:05.311Z,17.50
2018-06-16T04:40:26.014Z,16.70
2018-06-16T04:41:26.262Z,16.00
2018-06-16T04:42:26.015Z,16.10
2018-06-16T04:43:25.919Z,16.70
2018-06-16T04:44:26.224Z,16.40
2018-06-16T04:45:26.046Z,16.80
2018-06-16T04:46:25.881Z,15.80
2018-06-16T04:47:26.592Z,16.90
2018-06-16T04:48:26.562Z,16.30
2018-06-16T04:49:26.547Z,16.00
2018-06-16T04:50:26.356Z,16.00
2018-06-16T04:51:46.383Z,17.10
2018-06-16T04:52:47.195Z,15.70
2018-06-16T04:53:47.341Z,16.30
2018-06-16T04:55:09.705Z,15.60
2018-06-16T04:56:10.379Z,16.20
2018-06-16T04:57:10.299Z,16.70
2018-06-16T04:58:10.439Z,16.00
2018-06-16T04:59:10.215Z,16.50
2018-06-16T05:00:30.884Z,16.30
2018-06-16T05:01:31.030Z,17.00
2018-06-16T05:02:30.850Z,16.40
2018-06-16T05:03:30.929Z,16.50
2018-06-16T05:04:30.625Z,16.90
2018-06-16T05:05:30.883Z,16.60
2018-06-16T05:06:31.290Z,16.40
2018-06-16T05:07:31.059Z,16.40
2018-06-16T05:08:31.505Z,16.30
2018-06-16T05:09:31.134Z,16.00
2018-06-16T05:10:31.367Z,16.40
2018-06-16T05:11:31.595Z,16.50
2018-06-16T05:12:31.672Z,17.00
2018-06-16T05:13:30.911Z,16.70
2018-06-16T05:14:30.719Z,16.20
2018-06-16T05:15:31.938Z,15.80
2018-06-16T05:16:30.880Z,16.60
2018-06-16T05:17:30.702Z,17.40
2018-06-16T05:18:51.558Z,16.50
2018-06-16T05:20:33.798Z,16.50
2018-06-16T05:21:33.985Z,16.70
2018-06-16T05:22:34.190Z,16.40
2018-06-16T05:23:34.067Z,16.50
2018-06-16T05:24:34.384Z,16.50
2018-06-16T05:25:33.514Z,15.90
2018-06-16T05:26:34.359Z,16.80
2018-06-16T05:27:34.211Z,15.70
2018-06-16T05:28:34.038Z,16.40
2018-06-16T05:29:33.975Z,17.00
2018-06-16T05:30:54.536Z,15.90
2018-06-16T05:31:55.763Z,16.30
2018-06-16T05:32:54.927Z,16.00
2018-06-16T05:33:54.855Z,16.20
2018-06-16T05:34:54.861Z,15.50
2018-06-16T05:35:55.727Z,16.40
2018-06-16T05:36:55.466Z,17.40
2018-06-16T05:37:55.836Z,16.40
2018-06-16T05:38:55.087Z,15.80
2018-06-16T05:39:55.356Z,16.20
2018-06-16T05:40:56.148Z,16.40
2018-06-16T05:41:55.113Z,16.70
2018-06-16T05:42:55.512Z,16.50
2018-06-16T05:43:55.368Z,18.80
2018-06-16T05:44:55.836Z,18.20
2018-06-16T05:45:55.043Z,17.10
2018-06-16T05:46:55.261Z,16.40
2018-06-16T05:47:55.390Z,15.50
2018-06-16T05:48:55.509Z,15.30
2018-06-16T05:49:55.355Z,15.80
2018-06-16T05:50:55.647Z,15.40
2018-06-16T05:51:54.934Z,14.70
2018-06-16T05:52:54.792Z,13.90
2018-06-16T05:53:55.052Z,14.00
2018-06-16T05:54:55.238Z,13.40
2018-06-16T05:55:55.214Z,14.30
2018-06-16T05:56:55.057Z,14.20
2018-06-16T05:57:55.015Z,14.00
2018-06-16T05:58:55.001Z,13.40
2018-06-16T05:59:54.724Z,13.20
2018-06-16T06:00:54.620Z,12.70
2018-06-16T06:01:55.515Z,13.30
2018-06-16T06:02:54.953Z,13.90
2018-06-16T06:03:54.742Z,14.20
2018-06-16T06:04:54.558Z,12.50
2018-06-16T06:05:55.742Z,13.70
2018-06-16T06:07:15.280Z,13.00
2018-06-16T06:08:59.463Z,12.90
2018-06-16T06:09:59.786Z,13.10
2018-06-16T06:10:59.703Z,13.10
2018-06-16T06:11:59.734Z,12.90
2018-06-16T06:12:59.721Z,12.70
2018-06-16T06:14:00.026Z,13.00
2018-06-16T06:15:00.849Z,13.40
2018-06-16T06:16:00.140Z,12.50
2018-06-16T06:17:20.815Z,13.00
2018-06-16T06:18:22.435Z,13.10
2018-06-16T06:19:22.479Z,13.10
2018-06-16T06:20:32.485Z,12.40
2018-06-16T06:21:21.705Z,12.60
2018-06-16T06:22:21.984Z,12.80
2018-06-16T06:23:22.256Z,12.80
2018-06-16T06:24:42.207Z,12.60
2018-06-16T06:25:42.666Z,12.40
2018-06-16T06:26:42.698Z,12.20
2018-06-16T06:27:43.032Z,12.20
2018-06-16T06:28:42.997Z,11.00
2018-06-16T06:29:43.156Z,11.20
2018-06-16T06:30:43.184Z,12.60
2018-06-16T06:32:04.215Z,11.90
2018-06-16T06:33:27.646Z,10.70
2018-06-16T06:34:28.114Z,10.90
2018-06-16T06:35:27.747Z,11.60
2018-06-16T06:36:27.692Z,11.20
2018-06-16T06:37:28.000Z,11.70
2018-06-16T06:38:28.920Z,11.70
2018-06-16T06:39:27.808Z,10.60
2018-06-16T06:40:28.214Z,11.50
2018-06-16T06:41:49.449Z,11.60
2018-06-16T06:43:35.950Z,12.30
2018-06-16T06:44:36.667Z,11.20
2018-06-16T06:45:36.958Z,11.70
2018-06-16T06:46:36.314Z,11.10
2018-06-16T06:47:59.605Z,11.60
2018-06-16T06:49:00.859Z,11.40
2018-06-16T06:50:00.266Z,11.40
2018-06-16T06:51:00.727Z,10.90
2018-06-16T06:51:59.865Z,10.60
2018-06-16T06:53:00.204Z,11.10
2018-06-16T06:54:00.753Z,10.20
2018-06-16T06:54:59.851Z,10.80
2018-06-16T06:56:00.296Z,10.80
2018-06-16T06:57:00.770Z,10.20
2018-06-16T06:57:59.872Z,10.50
2018-06-16T06:59:00.272Z,10.00
2018-06-16T07:00:00.047Z,9.70
2018-06-16T07:00:59.948Z,9.90
2018-06-16T07:02:00.303Z,10.80
2018-06-16T07:03:00.246Z,9.90
2018-06-16T07:04:00.670Z,10.60
2018-06-16T07:05:00.071Z,10.20
2018-06-16T07:06:00.419Z,9.80
2018-06-16T07:07:00.735Z,9.30
2018-06-16T07:08:00.078Z,9.20
2018-06-16T07:09:00.514Z,8.30
2018-06-16T07:09:59.484Z,9.20
2018-06-16T07:11:00.398Z,9.00
2018-06-16T07:12:00.593Z,9.10
2018-06-16T07:12:59.963Z,8.50
2018-06-16T07:14:04.402Z,8.20
2018-06-16T07:15:00.299Z,8.20
2018-06-16T07:16:00.564Z,8.30
2018-06-16T07:16:59.864Z,7.20
2018-06-16T07:18:00.194Z,8.60
2018-06-16T07:19:00.656Z,7.70
2018-06-16T07:19:59.985Z,7.40
2018-06-16T07:20:59.970Z,8.00
2018-06-16T07:22:00.497Z,7.50
2018-06-16T07:23:20.179Z,7.80
2018-06-16T07:24:20.941Z,6.50
2018-06-16T07:25:20.742Z,7.60
2018-06-16T07:26:21.150Z,7.00
2018-06-16T07:27:20.650Z,7.50
2018-06-16T07:28:20.719Z,7.70
2018-06-16T07:29:21.498Z,7.80
2018-06-16T07:30:20.693Z,7.40
2018-06-16T07:31:20.671Z,7.20
2018-06-16T07:32:21.069Z,7.00
2018-06-16T07:33:21.354Z,7.80
2018-06-16T07:34:20.228Z,7.80
2018-06-16T07:35:20.242Z,7.70
2018-06-16T07:36:20.649Z,8.00
2018-06-16T07:37:21.019Z,6.90
2018-06-16T07:38:21.233Z,7.60
2018-06-16T07:39:20.490Z,7.30
2018-06-16T07:40:20.892Z,7.70
2018-06-16T07:41:20.749Z,7.60
2018-06-16T07:42:20.927Z,7.10
2018-06-16T07:43:20.910Z,7.90
2018-06-16T07:44:20.773Z,7.60
2018-06-16T07:45:20.630Z,7.60
2018-06-16T07:46:20.495Z,8.00
2018-06-16T07:47:20.401Z,7.50
2018-06-16T07:48:20.796Z,7.00
2018-06-16T07:49:20.858Z,7.00
2018-06-16T07:50:21.366Z,6.40
2018-06-16T07:51:20.133Z,6.70
2018-06-16T07:52:20.593Z,7.30
2018-06-16T07:53:20.971Z,6.60
2018-06-16T07:54:43.817Z,6.10
2018-06-16T07:55:44.686Z,6.20
2018-06-16T07:56:45.083Z,6.80
2018-06-16T07:57:44.044Z,7.10
2018-06-16T07:58:44.221Z,6.80
2018-06-16T07:59:44.505Z,6.30
2018-06-16T08:00:44.383Z,6.60
2018-06-16T08:01:44.595Z,7.20
2018-06-16T08:02:44.986Z,7.10
2018-06-16T08:03:45.612Z,6.90
2018-06-16T08:05:06.627Z,6.00
2018-06-16T08:06:06.674Z,6.40
2018-06-16T08:07:06.291Z,6.60
2018-06-16T08:08:31.484Z,6.30
2018-06-16T08:09:31.329Z,6.50
2018-06-16T08:10:52.358Z,6.60
2018-06-16T08:11:53.142Z,6.00
2018-06-16T08:13:14.264Z,7.30
2018-06-16T08:14:15.678Z,6.90
2018-06-16T08:15:14.476Z,6.60
2018-06-16T08:16:15.089Z,6.60
2018-06-16T08:17:15.313Z,6.80
2018-06-16T08:18:37.547Z,6.80
2018-06-16T08:19:37.440Z,6.60
2018-06-16T08:20:37.767Z,7.20
2018-06-16T08:21:38.017Z,6.70
2018-06-16T08:22:36.955Z,7.30
2018-06-16T08:23:38.389Z,6.60
2018-06-16T08:24:37.202Z,6.30
2018-06-16T08:25:37.628Z,6.20
2018-06-16T08:26:37.923Z,6.60
2018-06-16T08:27:37.766Z,6.10
2018-06-16T08:28:38.044Z,6.80
2018-06-16T08:29:57.937Z,7.30
2018-06-16T08:30:57.977Z,6.70
2018-06-16T08:31:59.497Z,6.50
2018-06-16T08:32:58.458Z,6.50
2018-06-16T08:33:58.379Z,6.90
2018-06-16T08:34:58.740Z,7.00
2018-06-16T08:35:57.738Z,6.50
2018-06-16T08:36:57.749Z,6.60
2018-06-16T08:37:58.025Z,7.40
2018-06-16T08:38:58.211Z,6.50
2018-06-16T08:39:58.681Z,7.00
2018-06-16T08:43:30.268Z,6.70
2018-06-16T08:44:25.929Z,7.70
2018-06-16T08:45:25.907Z,7.50
2018-06-16T08:46:25.571Z,7.30
2018-06-16T08:47:47.732Z,7.50
2018-06-16T08:48:48.454Z,6.50
2018-06-16T08:49:48.073Z,6.90
2018-06-16T08:50:47.722Z,6.80
2018-06-16T08:52:12.241Z,7.10
2018-06-16T08:53:12.936Z,7.00
2018-06-16T08:54:12.956Z,6.60
2018-06-16T08:55:12.490Z,7.00
2018-06-16T08:56:12.366Z,7.20
2018-06-16T08:57:12.130Z,7.10
2018-06-16T08:58:34.242Z,6.70
2018-06-16T08:59:35.051Z,7.20
2018-06-16T09:00:34.817Z,7.10
2018-06-16T09:01:34.751Z,6.80
2018-06-16T09:02:35.264Z,6.60
2018-06-16T09:03:34.825Z,7.00
2018-06-16T09:04:56.020Z,7.00
2018-06-16T09:05:56.914Z,6.80
2018-06-16T09:06:56.959Z,6.70
2018-06-16T09:07:56.672Z,6.90
2018-06-16T09:08:56.384Z,6.60
2018-06-16T09:09:56.005Z,7.20
2018-06-16T09:10:57.221Z,7.00
2018-06-16T09:11:56.393Z,7.40
2018-06-16T09:12:56.682Z,7.20
2018-06-16T09:13:56.331Z,6.70
2018-06-16T09:14:55.986Z,6.40
2018-06-16T09:15:57.168Z,6.20
2018-06-16T09:17:18.381Z,5.70
2018-06-16T09:18:42.481Z,6.90
2018-06-16T09:19:43.561Z,6.50
2018-06-16T09:21:08.451Z,6.50
2018-06-16T09:22:09.898Z,6.60
2018-06-16T09:23:08.255Z,6.50
2018-06-16T09:24:08.751Z,6.90
2018-06-16T09:25:13.799Z,6.50
2018-06-16T09:26:07.844Z,6.90
2018-06-16T09:27:06.891Z,6.70
2018-06-16T09:28:06.653Z,6.70
2018-06-16T09:29:07.962Z,6.00
2018-06-16T09:30:29.822Z,6.20
2018-06-16T09:31:30.053Z,6.30
2018-06-16T09:32:30.053Z,6.70
2018-06-16T09:33:30.246Z,5.90
2018-06-16T09:34:29.914Z,6.20
2018-06-16T09:35:29.483Z,5.50
2018-06-16T09:36:30.997Z,6.30
2018-06-16T09:37:29.638Z,5.80
2018-06-16T09:38:30.141Z,5.60
2018-06-16T09:39:29.796Z,5.90
2018-06-16T09:40:29.682Z,5.80
2018-06-16T09:41:51.828Z,8.60
2018-06-16T09:42:51.949Z,7.90
2018-06-16T09:43:51.620Z,9.90
2018-06-16T09:44:55.166Z,6.50
2018-06-16T09:46:36.739Z,5.00
2018-06-16T09:47:37.268Z,4.80
2018-06-16T09:48:36.855Z,4.00
2018-06-16T09:49:37.744Z,4.10
2018-06-16T09:50:37.523Z,3.90
2018-06-16T09:51:37.849Z,3.70
2018-06-16T09:52:38.046Z,3.50
2018-06-16T09:53:37.218Z,4.00
2018-06-16T09:54:37.051Z,3.80
2018-06-16T09:55:37.146Z,3.80
2018-06-16T09:56:37.017Z,3.40
2018-06-16T09:57:37.714Z,3.60
2018-06-16T09:58:39.539Z,3.50
2018-06-16T09:59:38.672Z,3.10
2018-06-16T10:00:37.757Z,3.50
2018-06-16T10:02:08.312Z,3.30
2018-06-16T10:03:31.667Z,3.40
2018-06-16T10:04:49.688Z,3.40
2018-06-16T10:05:55.016Z,3.30
2018-06-16T10:07:12.361Z,3.90
2018-06-16T10:08:10.966Z,3.00
2018-06-16T10:09:12.639Z,3.40
2018-06-16T10:10:12.248Z,3.70
2018-06-16T10:11:11.817Z,3.50
2018-06-16T10:12:35.450Z,3.70
2018-06-16T10:13:35.473Z,3.30
2018-06-16T10:14:35.173Z,3.10
2018-06-16T10:15:35.974Z,3.30
2018-06-16T10:16:35.494Z,3.60
2018-06-16T10:17:35.186Z,3.80
2018-06-16T10:18:58.015Z,3.00
2018-06-16T10:19:57.971Z,3.80
2018-06-16T10:20:58.550Z,3.60
2018-06-16T10:21:58.631Z,3.80
2018-06-16T10:22:58.424Z,3.40
2018-06-16T10:23:58.867Z,3.60
2018-06-16T10:24:58.624Z,3.60
2018-06-16T10:25:58.356Z,4.00
2018-06-16T10:26:58.209Z,3.40
2018-06-16T10:27:58.042Z,3.50
2018-06-16T10:28:57.898Z,3.50
2018-06-16T10:29:58.135Z,3.40
2018-06-16T10:30:59.517Z,4.90
2018-06-16T10:31:58.454Z,4.00
2018-06-16T10:32:57.900Z,3.40
2018-06-16T10:34:19.169Z,3.60
2018-06-16T10:35:20.043Z,3.20
2018-06-16T10:36:19.561Z,3.70
2018-06-16T10:37:20.424Z,3.90
2018-06-16T10:38:19.917Z,3.80
2018-06-16T10:39:19.761Z,3.70
2018-06-16T10:40:19.707Z,3.60
2018-06-16T10:41:41.088Z,3.90
2018-06-16T10:43:04.017Z,4.50
2018-06-16T10:44:04.561Z,4.00
2018-06-16T10:45:03.593Z,3.90
2018-06-16T10:46:04.082Z,4.50
2018-06-16T10:47:03.818Z,4.30
2018-06-16T10:48:04.292Z,4.20
2018-06-16T10:49:25.681Z,4.20
2018-06-16T10:50:26.864Z,4.10
2018-06-16T10:51:25.475Z,4.50
2018-06-16T10:52:50.075Z,4.50
2018-06-16T10:53:50.645Z,5.00
2018-06-16T10:55:16.825Z,4.20
2018-06-16T10:56:15.920Z,4.10
2018-06-16T10:57:15.758Z,3.90
2018-06-16T10:58:15.397Z,4.10
2018-06-16T10:59:38.915Z,3.70
2018-06-16T11:01:01.354Z,3.60
2018-06-16T11:02:01.415Z,4.30
2018-06-16T11:03:23.577Z,4.00
2018-06-16T11:04:24.232Z,4.40
2018-06-16T11:05:23.851Z,4.20
2018-06-16T11:06:24.664Z,3.00
2018-06-16T11:07:24.717Z,3.30
2018-06-16T11:08:24.560Z,3.00
2018-06-16T11:09:24.427Z,3.20
2018-06-16T11:10:24.241Z,3.60
2018-06-16T11:11:23.775Z,3.20
2018-06-16T11:12:24.564Z,4.00
2018-06-16T11:13:24.455Z,3.10
2018-06-16T11:14:24.382Z,3.60
2018-06-16T11:15:25.497Z,3.30
2018-06-16T11:16:24.640Z,3.80
2018-06-16T11:17:24.660Z,3.50
2018-06-16T11:18:24.360Z,3.10
2018-06-16T11:19:23.922Z,3.60
2018-06-16T11:20:24.707Z,3.30
2018-06-16T11:21:24.576Z,3.30
2018-06-16T11:22:24.571Z,2.80
2018-06-16T11:23:46.111Z,3.10
2018-06-16T11:24:47.072Z,2.70
2018-06-16T11:25:46.944Z,3.30
2018-06-16T11:26:46.955Z,2.90
2018-06-16T11:27:47.013Z,2.80
2018-06-16T11:28:46.991Z,3.00
2018-06-16T11:29:46.845Z,3.50
2018-06-16T11:30:46.402Z,3.30
2018-06-16T11:32:29.922Z,3.10
2018-06-16T11:33:30.637Z,3.70
2018-06-16T11:34:30.214Z,3.10
2018-06-16T11:35:30.878Z,3.50
2018-06-16T11:36:51.887Z,2.90
2018-06-16T11:37:52.394Z,3.40
2018-06-16T11:38:52.270Z,3.60
2018-06-16T11:40:13.103Z,3.30
2018-06-16T11:41:59.441Z,3.40
2018-06-16T11:43:00.010Z,3.60
2018-06-16T11:43:59.534Z,2.70
2018-06-16T11:45:00.424Z,3.10
2018-06-16T11:46:00.243Z,2.60
2018-06-16T11:46:59.690Z,2.90
2018-06-16T11:48:22.289Z,3.00
2018-06-16T11:49:22.933Z,3.20
2018-06-16T11:50:23.033Z,3.90
2018-06-16T11:51:44.247Z,2.80
2018-06-16T11:52:44.801Z,3.40
2018-06-16T11:53:44.309Z,3.50
2018-06-16T11:54:44.854Z,3.10
2018-06-16T11:55:44.358Z,3.20
2018-06-16T11:56:44.904Z,3.10
2018-06-16T11:57:44.833Z,3.40
2018-06-16T11:59:06.361Z,3.20
2018-06-16T12:00:07.056Z,3.70
2018-06-16T12:01:06.596Z,4.10
2018-06-16T12:02:06.460Z,3.90
2018-06-16T12:03:06.097Z,3.90
2018-06-16T12:04:06.839Z,3.90
2018-06-16T12:05:06.362Z,3.10
2018-06-16T12:06:07.420Z,3.90
2018-06-16T12:07:08.239Z,3.10
2018-06-16T12:08:06.799Z,3.60
2018-06-16T12:09:07.504Z,3.10
2018-06-16T12:10:06.207Z,3.50
2018-06-16T12:11:08.118Z,3.50
2018-06-16T12:12:07.558Z,3.10
2018-06-16T12:13:29.396Z,3.60
2018-06-16T12:14:30.192Z,3.50
2018-06-16T12:15:30.646Z,3.60
2018-06-16T12:16:29.516Z,4.00
2018-06-16T12:17:30.345Z,4.10
2018-06-16T12:18:30.106Z,3.80
2018-06-16T12:19:30.070Z,3.50
2018-06-16T12:20:29.958Z,3.50
2018-06-16T12:21:30.266Z,3.50
2018-06-16T12:22:29.711Z,3.50
2018-06-16T12:23:31.192Z,3.10
2018-06-16T12:24:30.447Z,3.50
2018-06-16T12:25:29.895Z,3.80
2018-06-16T12:26:29.537Z,3.90
2018-06-16T12:27:29.908Z,3.60
2018-06-16T12:28:29.714Z,3.30
2018-06-16T12:29:30.924Z,3.30
2018-06-16T12:30:30.193Z,3.40
2018-06-16T12:31:30.299Z,3.70
2018-06-16T12:32:30.405Z,3.40
2018-06-16T12:33:53.596Z,3.20
2018-06-16T12:34:54.380Z,3.40
2018-06-16T12:35:53.992Z,3.40
2018-06-16T12:36:54.079Z,4.20
2018-06-16T12:37:53.986Z,3.70
2018-06-16T12:38:53.661Z,3.70
2018-06-16T12:39:54.308Z,3.40
2018-06-16T12:40:54.018Z,3.40
2018-06-16T12:41:54.940Z,4.30
2018-06-16T12:42:53.821Z,3.40
2018-06-16T12:43:53.798Z,4.00
2018-06-16T12:44:53.438Z,3.70
2018-06-16T12:45:54.354Z,3.80
2018-06-16T12:46:54.467Z,4.00
2018-06-16T12:47:54.042Z,4.60
2018-06-16T12:48:53.899Z,3.70
2018-06-16T12:49:53.771Z,3.70
2018-06-16T12:50:54.090Z,3.80
2018-06-16T12:51:53.991Z,3.10
2018-06-16T12:52:53.998Z,4.20
2018-06-16T12:53:54.037Z,4.20
2018-06-16T12:54:55.279Z,3.70
2018-06-16T12:55:54.676Z,4.10
2018-06-16T12:56:54.300Z,4.20
2018-06-16T12:58:15.560Z,4.10
2018-06-16T12:59:16.160Z,4.20
2018-06-16T13:00:16.861Z,4.50
2018-06-16T13:01:15.745Z,3.40
2018-06-16T13:02:15.597Z,3.70
2018-06-16T13:03:16.572Z,3.80
2018-06-16T13:04:16.486Z,4.00
2018-06-16T13:05:40.382Z,4.10
2018-06-16T13:06:41.099Z,4.10
2018-06-16T13:07:40.758Z,3.70
2018-06-16T13:08:41.318Z,3.50
2018-06-16T13:09:41.069Z,3.40
2018-06-16T13:10:44.703Z,3.60
2018-06-16T13:11:40.960Z,3.50
2018-06-16T13:12:40.524Z,3.70
2018-06-16T13:14:05.051Z,4.20
2018-06-16T13:15:05.891Z,4.20
2018-06-16T13:16:05.466Z,3.50
2018-06-16T13:17:05.753Z,3.50
2018-06-16T13:18:05.326Z,3.60
2018-06-16T13:19:05.154Z,4.10
2018-06-16T13:20:05.093Z,3.70
2018-06-16T13:21:05.795Z,3.80
2018-06-16T13:22:05.246Z,4.00
2018-06-16T13:23:05.697Z,4.00
2018-06-16T13:24:05.630Z,3.90
2018-06-16T13:25:49.405Z,3.80
2018-06-16T13:26:50.233Z,3.70
2018-06-16T13:27:49.750Z,3.30
2018-06-16T13:28:50.707Z,4.10
2018-06-16T13:30:12.221Z,3.80
2018-06-16T13:31:12.040Z,3.90
2018-06-16T13:32:12.991Z,4.30
2018-06-16T13:33:12.662Z,4.60
2018-06-16T13:34:56.089Z,3.70
2018-06-16T13:35:55.707Z,4.00
2018-06-16T13:36:56.220Z,4.40
2018-06-16T13:37:56.058Z,4.10
2018-06-16T13:38:55.706Z,3.90
2018-06-16T13:39:56.618Z,3.80
2018-06-16T13:40:56.949Z,3.70
2018-06-16T13:41:56.762Z,3.90
2018-06-16T13:42:56.600Z,4.10
2018-06-16T13:43:56.530Z,3.90
2018-06-16T13:44:56.503Z,4.30
2018-06-16T13:45:57.402Z,4.30
2018-06-16T13:46:56.717Z,4.70
2018-06-16T13:47:58.791Z,4.30
2018-06-16T13:48:57.931Z,3.90
2018-06-16T13:49:57.752Z,3.80
2018-06-16T13:50:56.612Z,3.90
2018-06-16T13:51:56.356Z,3.60
2018-06-16T13:52:55.826Z,3.70